createdAt,value
2023-02-27T00:03:10.022Z,143182.22
2023-02-27T00:08:14.036Z,143167.53
2023-02-27T00:13:16.717Z,143133.25
2023-02-27T00:18:19.272Z,143101.41
2023-02-27T00:23:23.238Z,143057.41
2023-02-27T00:28:25.861Z,143021.91
2023-02-27T00:33:29.504Z,143004.78
2023-02-27T00:38:33.262Z,142988.84
2023-02-27T00:43:35.829Z,142986.41
2023-02-27T00:48:38.553Z,142969.28
2023-02-27T00:53:42.520Z,142954.63
2023-02-27T00:58:45.207Z,142942.41
2023-02-27T01:03:47.770Z,142909.38
2023-02-27T01:08:51.717Z,142881.28
2023-02-27T01:13:54.320Z,142861.69
2023-02-27T01:18:56.942Z,142844.56
2023-02-27T01:24:01.229Z,142832.38
2023-02-27T01:29:06.453Z,142825.03
2023-02-27T01:34:09.210Z,142818.88
2023-02-27T01:39:13.254Z,142822.53
2023-02-27T01:44:16.233Z,142826.25
2023-02-27T01:49:22.081Z,142812.78
2023-02-27T01:54:27.447Z,142787.13
2023-02-27T01:59:30.970Z,142768.81
2023-02-27T02:04:37.309Z,142759.00
2023-02-27T02:09:44.847Z,142738.22
2023-02-27T02:14:47.412Z,142710.16
2023-02-27T02:20:23.224Z,142704.00
2023-02-27T02:25:58.033Z,142699.13
2023-02-27T02:31:26.282Z,142700.34
2023-02-27T02:37:18.609Z,142705.22
2023-02-27T02:42:26.719Z,142695.44
2023-02-27T02:47:36.645Z,142707.66
2023-02-27T02:52:52.658Z,142707.66
2023-02-27T02:58:03.915Z,142718.69
2023-02-27T03:03:12.874Z,142704.00
2023-02-27T03:08:19.855Z,142688.13
2023-02-27T03:13:30.233Z,142664.94
2023-02-27T03:18:38.265Z,142663.72
2023-02-27T03:23:44.978Z,142649.00
2023-02-27T03:28:54.057Z,142609.97
2023-02-27T03:34:01.902Z,142608.75
2023-02-27T03:39:12.056Z,142609.97
2023-02-27T03:44:26.861Z,142584.28
2023-02-27T03:49:29.600Z,142568.41
2023-02-27T03:54:37.362Z,142572.09
2023-02-27T03:59:41.304Z,142569.63
2023-02-27T04:04:43.943Z,142570.84
2023-02-27T04:10:06.041Z,142557.44
2023-02-27T04:15:22.489Z,142559.88
2023-02-27T04:20:39.827Z,142553.78
2023-02-27T04:26:02.079Z,142546.47
2023-02-27T04:31:14.251Z,142565.97
2023-02-27T04:36:24.880Z,142540.41
2023-02-27T04:41:31.857Z,142522.06
2023-02-27T04:46:40.156Z,142517.19
2023-02-27T04:51:51.884Z,142512.28
2023-02-27T04:56:58.719Z,142518.41
2023-02-27T05:02:06.204Z,142507.41
2023-02-27T05:07:11.817Z,142502.53
2023-02-27T05:12:20.378Z,142498.88
2023-02-27T05:17:30.969Z,142495.22
2023-02-27T05:22:43.251Z,142480.53
2023-02-27T05:27:50.894Z,142468.34
2023-02-27T05:32:59.379Z,142463.44
2023-02-27T05:38:06.227Z,142468.34
2023-02-27T05:43:13.660Z,142490.34
2023-02-27T05:48:22.229Z,142522.06
2023-02-27T05:53:30.875Z,142539.13
2023-02-27T05:58:39.277Z,142546.47
2023-02-27T06:03:44.056Z,142551.34
2023-02-27T06:08:47.463Z,142537.91
2023-02-27T06:13:50.097Z,142526.94
2023-02-27T06:18:55.407Z,142536.69
2023-02-27T06:23:58.047Z,142545.22
2023-02-27T06:29:00.646Z,142546.47
2023-02-27T06:34:04.628Z,142541.63
2023-02-27T06:39:07.278Z,142551.34
2023-02-27T06:44:09.903Z,142569.63
2023-02-27T06:49:13.881Z,142590.38
2023-02-27T06:54:16.501Z,142628.25
2023-02-27T06:59:19.337Z,142666.16
2023-02-27T07:04:23.297Z,142704.00
2023-02-27T07:09:25.967Z,142756.53
2023-02-27T07:14:28.626Z,142804.22
2023-02-27T07:19:35.924Z,142849.47
2023-02-27T07:24:38.668Z,142913.03
2023-02-27T07:29:41.346Z,143203.00
2023-02-27T07:34:45.327Z,143400.19
2023-02-27T07:39:48.039Z,143828.06
2023-02-27T07:44:50.639Z,144426.25
2023-02-27T07:49:55.115Z,144867.94
2023-02-27T07:54:57.683Z,144955.41
2023-02-27T08:00:00.264Z,144908.59
2023-02-27T08:05:04.355Z,145257.34
2023-02-27T08:10:08.047Z,145474.50
2023-02-27T08:15:11.204Z,145644.84
2023-02-27T08:20:15.738Z,145797.94
2023-02-27T08:25:19.059Z,145856.03
2023-02-27T08:30:21.773Z,145993.25
2023-02-27T08:35:25.977Z,146108.22
2023-02-27T08:40:28.656Z,146142.81
2023-02-27T08:45:32.262Z,146249.19
2023-02-27T08:50:36.272Z,146395.19
2023-02-27T08:55:38.879Z,146496.75
2023-02-27T09:00:41.515Z,146523.97
2023-02-27T09:05:45.605Z,146580.94
2023-02-27T09:10:48.262Z,146129.22
2023-02-27T09:15:50.935Z,145585.56
2023-02-27T09:20:56.443Z,145314.06
2023-02-27T09:25:59.116Z,145177.22
2023-02-27T09:31:02.418Z,145084.78
2023-02-27T09:36:08.362Z,145028.09
2023-02-27T09:41:30.219Z,145090.94
2023-02-27T09:46:32.886Z,145025.63
2023-02-27T09:51:36.965Z,145049.03
2023-02-27T09:56:47.972Z,145094.63
2023-02-27T10:01:56.195Z,145100.78
2023-02-27T10:07:07.858Z,145142.69
2023-02-27T10:12:29.974Z,145330.09
2023-02-27T10:17:37.255Z,145616.41
2023-02-27T10:22:45.810Z,145870.84
2023-02-27T10:27:50.707Z,146034.03
2023-02-27T10:32:58.207Z,146125.50
2023-02-27T10:38:05.103Z,146328.38
2023-02-27T10:43:08.287Z,146603.19
2023-02-27T10:48:12.118Z,146715.91
2023-02-27T10:53:21.932Z,146864.69
2023-02-27T10:58:25.240Z,146749.38
2023-02-27T11:03:29.934Z,146786.56
2023-02-27T11:08:35.057Z,146725.88
2023-02-27T11:13:39.646Z,146834.91
2023-02-27T11:18:43.394Z,146826.25
2023-02-27T11:24:00.605Z,146759.28
2023-02-27T11:29:18.324Z,146644.09
2023-02-27T11:34:25.775Z,146372.91
2023-02-27T11:39:35.345Z,145972.19
2023-02-27T11:44:50.255Z,145726.31
2023-02-27T11:50:18.858Z,145507.78
2023-02-27T11:55:27.896Z,145411.59
2023-02-27T12:00:39.852Z,145451.03
2023-02-27T12:05:46.996Z,145425.13
2023-02-27T12:10:59.343Z,145467.09
2023-02-27T12:16:18.530Z,145421.44
2023-02-27T12:21:25.159Z,145453.50
2023-02-27T12:26:33.851Z,145530.03
2023-02-27T12:31:48.911Z,145467.09
2023-02-27T12:36:53.294Z,145478.19
2023-02-27T12:42:31.200Z,145799.22
2023-02-27T12:47:43.150Z,145647.31
2023-02-27T12:53:02.639Z,145585.56
2023-02-27T12:58:29.398Z,146026.59
2023-02-27T13:03:42.125Z,146147.78
2023-02-27T13:09:04.252Z,146066.16
2023-02-27T13:14:12.506Z,145638.66
2023-02-27T13:19:21.354Z,145451.03
2023-02-27T13:24:27.137Z,145342.47
2023-02-27T13:29:36.992Z,145401.72
2023-02-27T13:34:45.149Z,145401.72
2023-02-27T13:40:01.492Z,145372.03
2023-02-27T13:45:05.640Z,145744.88
2023-02-27T13:50:45.801Z,146333.34
2023-02-27T13:55:50.999Z,145898.00
2023-02-27T14:01:00.381Z,145510.25
2023-02-27T14:06:06.188Z,145452.25
2023-02-27T14:11:19.013Z,145586.81
2023-02-27T14:16:54.834Z,145439.94
2023-02-27T14:22:00.395Z,145537.44
2023-02-27T14:27:06.434Z,145567.03
2023-02-27T14:32:09.169Z,145627.56
2023-02-27T14:37:17.168Z,145625.06
2023-02-27T14:42:41.075Z,145670.75
2023-02-27T14:47:45.634Z,145727.53
2023-02-27T14:52:48.350Z,145763.38
2023-02-27T14:58:00.238Z,145797.94
2023-02-27T15:03:13.017Z,145720.13
2023-02-27T15:08:19.419Z,145517.69
2023-02-27T15:13:30.754Z,145554.69
2023-02-27T15:18:33.365Z,145574.47
2023-02-27T15:23:35.930Z,145569.53
2023-02-27T15:28:40.398Z,145632.50
2023-02-27T15:33:44.238Z,145596.69
2023-02-27T15:38:46.899Z,145574.47
2023-02-27T15:43:50.962Z,145559.63
2023-02-27T15:48:55.743Z,145563.34
2023-02-27T15:54:01.428Z,145514.00
2023-02-27T15:59:06.114Z,145426.38
2023-02-27T16:04:20.815Z,145376.97
2023-02-27T16:09:30.176Z,145246.25
2023-02-27T16:14:43.919Z,145152.56
2023-02-27T16:19:47.360Z,145095.84
2023-02-27T16:24:50.634Z,145026.88
2023-02-27T16:29:57.206Z,144980.03
2023-02-27T16:35:04.545Z,144936.91
2023-02-27T16:40:13.645Z,144903.69
2023-02-27T16:45:19.204Z,144877.81
2023-02-27T16:50:24.788Z,144824.88
2023-02-27T16:55:28.344Z,144747.31
2023-02-27T17:00:34.033Z,144669.78
2023-02-27T17:05:36.823Z,144595.97
2023-02-27T17:10:39.628Z,144550.44
2023-02-27T17:15:43.873Z,144496.31
2023-02-27T17:20:46.865Z,144412.69
2023-02-27T17:25:49.508Z,144345.06
2023-02-27T17:30:54.786Z,144278.72
2023-02-27T17:36:02.809Z,144252.94
2023-02-27T17:41:07.903Z,144212.38
2023-02-27T17:46:14.646Z,144195.19
2023-02-27T17:51:19.685Z,144182.84
2023-02-27T17:56:22.359Z,144158.31
2023-02-27T18:01:27.424Z,144171.81
2023-02-27T18:06:30.510Z,144175.50
2023-02-27T18:11:33.448Z,144181.63
2023-02-27T18:16:37.479Z,144195.19
2023-02-27T18:21:42.032Z,144219.72
2023-02-27T18:26:45.319Z,144239.38
2023-02-27T18:31:50.275Z,144223.41
2023-02-27T18:36:52.949Z,144155.84
2023-02-27T18:41:55.707Z,144069.84
2023-02-27T18:46:59.745Z,144010.91
2023-02-27T18:52:02.777Z,143944.63
2023-02-27T18:57:06.020Z,143895.53
2023-02-27T19:02:15.166Z,143836.63
2023-02-27T19:07:18.093Z,143782.66
2023-02-27T19:12:20.627Z,143763.03
2023-02-27T19:17:25.586Z,143744.66
2023-02-27T19:22:29.535Z,143726.22
2023-02-27T19:27:32.093Z,143729.91
2023-02-27T19:32:37.062Z,143733.56
2023-02-27T19:37:40.553Z,143720.09
2023-02-27T19:42:44.662Z,143689.47
2023-02-27T19:47:48.545Z,143635.50
2023-02-27T19:52:51.923Z,143591.34
2023-02-27T19:57:54.702Z,143553.34
2023-02-27T20:02:58.891Z,143544.75
2023-02-27T20:08:01.456Z,143505.53
2023-02-27T20:13:04.016Z,143473.69
2023-02-27T20:18:07.887Z,143449.16
2023-02-27T20:23:10.465Z,143403.88
2023-02-27T20:28:13.064Z,143389.13
2023-02-27T20:33:17.079Z,143368.31
2023-02-27T20:38:22.602Z,143340.19
2023-02-27T20:43:25.509Z,143340.19
2023-02-27T20:48:29.778Z,143309.53
2023-02-27T20:53:35.124Z,143303.41
2023-02-27T20:58:38.454Z,143287.50
2023-02-27T21:03:44.999Z,143287.50
2023-02-27T21:08:49.884Z,143294.84
2023-02-27T21:13:52.672Z,143266.66
2023-02-27T21:18:57.434Z,143225.06
2023-02-27T21:24:00.832Z,143196.88
2023-02-27T21:29:06.374Z,143168.75
2023-02-27T21:34:14.188Z,143143.03
2023-02-27T21:39:19.648Z,143139.38
2023-02-27T21:44:25.314Z,143157.72
2023-02-27T21:49:31.189Z,143156.47
2023-02-27T21:54:33.817Z,143152.81
2023-02-27T21:59:36.504Z,143150.38
2023-02-27T22:04:40.490Z,143177.31
2023-02-27T22:09:43.142Z,143192.00
2023-02-27T22:14:45.739Z,143187.09
2023-02-27T22:19:49.772Z,143204.22
2023-02-27T22:24:52.394Z,143245.88
2023-02-27T22:29:55.755Z,143282.63
2023-02-27T22:35:00.646Z,143319.31
2023-02-27T22:40:03.295Z,143338.94
2023-02-27T22:45:06.773Z,143331.56
2023-02-27T22:50:12.142Z,143323.00
2023-02-27T22:55:14.681Z,143310.75
2023-02-27T23:00:18.113Z,143321.78
2023-02-27T23:05:22.117Z,143386.69
2023-02-27T23:10:24.803Z,143456.56
2023-02-27T23:15:27.390Z,143532.53
2023-02-27T23:20:31.355Z,143598.72
2023-02-27T23:25:34.737Z,143663.69
2023-02-27T23:30:37.560Z,143711.50
2023-02-27T23:35:41.534Z,143750.78
2023-02-27T23:40:44.187Z,143777.75
2023-02-27T23:45:46.932Z,143805.97
2023-02-27T23:50:50.955Z,143831.72
2023-02-27T23:55:53.514Z,143862.44
